Finike, Turkey
Current Conditions -  °F | °C
As of 2:20 PM on Friday 19 Dec 2014 (Local Time) from LTAI Reporting Station
Broken Clouds Broken Clouds  
Wind Chill: 64°   Ceiling: 3000
Heat Index: 64°   Visibility: 6mi
Dew Point: 48°   Wind: 6mph
Humidity: 56%   Direction: 110°ESE
Pressure: 30.06"   Gusts: NA
Location:  36.3°N, 30.14°E
Report Text: LTAI 191120Z 11005KT 060V170 9999 BKN030 18/09 Q1018 NOSIG
Loading
Personal Weather Stations






























Interactive Weather Map New forecast layout! Learn more

10-Day Weather Forecast

Advertisements
Track Severe Weather on mobile